createdAt,value
2017-09-20T00:00:10.630Z,3.13
2017-09-20T00:02:39.509Z,4.47
2017-09-20T00:05:07.656Z,4.97
2017-09-20T00:07:35.778Z,6.60
2017-09-20T00:10:04.667Z,4.70
2017-09-20T00:12:32.786Z,4.37
2017-09-20T00:15:00.918Z,4.73
2017-09-20T00:17:29.054Z,5.30
2017-09-20T00:19:57.986Z,4.90
2017-09-20T00:22:26.105Z,5.60
2017-09-20T00:24:54.277Z,5.83
2017-09-20T00:27:23.036Z,6.03
2017-09-20T00:29:51.222Z,5.93
2017-09-20T00:32:19.420Z,5.73
2017-09-20T00:34:48.285Z,6.70
2017-09-20T00:37:16.421Z,5.73
2017-09-20T00:39:44.547Z,5.70
2017-09-20T00:42:12.680Z,5.33
2017-09-20T00:44:40.809Z,5.13
2017-09-20T00:47:08.916Z,6.80
2017-09-20T00:49:37.061Z,6.07
2017-09-20T00:52:06.732Z,5.40
2017-09-20T00:54:34.855Z,6.10
2017-09-20T00:57:03.761Z,8.63
2017-09-20T00:59:31.869Z,6.77
2017-09-20T01:02:00.007Z,5.83
2017-09-20T01:04:28.099Z,7.37
2017-09-20T01:06:56.205Z,5.90
2017-09-20T01:09:24.475Z,6.80
2017-09-20T01:11:52.571Z,6.03
2017-09-20T01:14:20.685Z,7.03
2017-09-20T01:16:53.612Z,4.63
2017-09-20T01:19:21.752Z,5.03
2017-09-20T01:22:01.728Z,5.90
2017-09-20T01:24:29.854Z,8.33
2017-09-20T01:26:57.963Z,6.27
2017-09-20T01:29:26.875Z,7.07
2017-09-20T01:31:54.986Z,4.97
2017-09-20T01:34:23.106Z,5.83
2017-09-20T01:36:51.199Z,6.10
2017-09-20T01:39:20.077Z,7.77
2017-09-20T01:41:48.197Z,4.97
2017-09-20T01:44:16.301Z,4.03
2017-09-20T01:46:45.150Z,7.30
2017-09-20T01:49:13.264Z,5.53
2017-09-20T01:51:41.440Z,4.60
2017-09-20T01:54:09.770Z,5.37
2017-09-20T01:56:37.891Z,5.00
2017-09-20T01:59:05.988Z,6.83
2017-09-20T02:01:34.861Z,6.47
2017-09-20T02:04:02.983Z,5.03
2017-09-20T02:06:31.665Z,5.23
2017-09-20T02:09:00.590Z,6.13
2017-09-20T02:11:30.278Z,7.50
2017-09-20T02:13:59.149Z,7.00
2017-09-20T02:16:27.236Z,6.27
2017-09-20T02:18:56.104Z,4.90
2017-09-20T02:21:24.230Z,7.13
2017-09-20T02:23:53.129Z,7.97
2017-09-20T02:26:21.356Z,5.13
2017-09-20T02:28:49.509Z,9.60
2017-09-20T02:31:17.628Z,6.50
2017-09-20T02:33:46.390Z,5.30
2017-09-20T02:36:15.333Z,6.10
2017-09-20T02:38:44.267Z,6.40
2017-09-20T02:41:12.366Z,5.90
2017-09-20T02:43:40.613Z,4.43
2017-09-20T02:46:08.719Z,9.63
2017-09-20T02:48:36.857Z,8.97
2017-09-20T02:51:05.034Z,4.73
2017-09-20T02:53:33.159Z,4.13
2017-09-20T02:56:04.178Z,3.40
2017-09-20T02:58:32.409Z,4.53
2017-09-20T03:01:01.404Z,4.10
2017-09-20T03:03:29.491Z,5.10
2017-09-20T03:05:57.833Z,4.13
2017-09-20T03:08:27.184Z,3.60
2017-09-20T03:10:55.373Z,3.90
2017-09-20T03:13:23.622Z,3.87
2017-09-20T03:15:51.853Z,5.40
2017-09-20T03:18:19.976Z,3.70
2017-09-20T03:20:49.828Z,7.47
2017-09-20T03:23:19.083Z,4.40
2017-09-20T03:25:47.329Z,5.17
2017-09-20T03:28:15.451Z,6.83
2017-09-20T03:30:43.581Z,3.77
2017-09-20T03:33:11.701Z,4.93
2017-09-20T03:35:39.863Z,5.70
2017-09-20T03:38:08.789Z,3.93
2017-09-20T03:40:37.016Z,5.10
2017-09-20T03:43:05.161Z,4.17
2017-09-20T03:45:33.338Z,7.43
2017-09-20T03:48:01.612Z,5.00
2017-09-20T03:50:29.738Z,4.50
2017-09-20T03:52:59.223Z,5.00
2017-09-20T03:55:28.002Z,5.03
2017-09-20T03:57:56.968Z,7.97
2017-09-20T04:00:25.068Z,5.20
2017-09-20T04:02:53.945Z,5.33
2017-09-20T04:05:22.076Z,5.30
2017-09-20T04:07:50.219Z,5.83
2017-09-20T04:10:18.366Z,5.57
2017-09-20T04:12:46.865Z,10.53
2017-09-20T04:15:15.041Z,6.70
2017-09-20T04:17:43.182Z,6.50
2017-09-20T04:20:12.054Z,7.73
2017-09-20T04:22:40.964Z,7.33
2017-09-20T04:25:09.096Z,6.30
2017-09-20T04:27:38.581Z,6.80
2017-09-20T04:30:07.450Z,6.17
2017-09-20T04:32:35.603Z,8.90
2017-09-20T04:35:03.728Z,8.50
2017-09-20T04:37:31.949Z,7.23
2017-09-20T04:40:00.061Z,7.50
2017-09-20T04:42:28.267Z,7.47
2017-09-20T04:44:56.431Z,10.90
2017-09-20T04:47:25.360Z,6.57
2017-09-20T04:49:53.488Z,7.87
2017-09-20T04:52:22.392Z,8.23
2017-09-20T04:54:50.546Z,7.80
2017-09-20T04:57:18.675Z,9.07
2017-09-20T04:59:47.593Z,7.23
2017-09-20T05:02:16.654Z,10.87
2017-09-20T05:04:44.769Z,7.93
2017-09-20T05:07:12.894Z,7.73
2017-09-20T05:09:41.027Z,8.33
2017-09-20T05:12:09.164Z,8.00
2017-09-20T05:14:38.065Z,10.27
2017-09-20T05:17:06.232Z,6.73
2017-09-20T05:19:35.098Z,9.83
2017-09-20T05:22:03.206Z,9.47
2017-09-20T05:24:32.174Z,11.20
2017-09-20T05:27:00.316Z,9.43
2017-09-20T05:29:29.124Z,9.73
2017-09-20T05:31:57.277Z,11.80
2017-09-20T05:34:25.488Z,12.57
2017-09-20T05:36:54.327Z,11.07
2017-09-20T05:39:22.495Z,10.53
2017-09-20T05:41:50.637Z,10.47
2017-09-20T05:44:19.651Z,10.00
2017-09-20T05:46:47.782Z,12.00
2017-09-20T05:49:15.926Z,10.50
2017-09-20T05:51:44.061Z,11.60
2017-09-20T05:54:12.187Z,9.23
2017-09-20T05:56:40.314Z,14.93
2017-09-20T05:59:09.226Z,9.80
2017-09-20T06:01:38.890Z,11.13
2017-09-20T06:04:06.967Z,9.37
2017-09-20T06:06:35.924Z,9.90
2017-09-20T06:09:04.062Z,11.80
2017-09-20T06:11:32.952Z,8.93
2017-09-20T06:14:01.937Z,9.60
2017-09-20T06:16:30.034Z,13.03
2017-09-20T06:18:58.187Z,8.83
2017-09-20T06:21:26.320Z,10.73
2017-09-20T06:23:54.478Z,8.80
2017-09-20T06:26:22.596Z,8.80
2017-09-20T06:28:50.791Z,8.33
2017-09-20T06:31:19.515Z,7.47
2017-09-20T06:33:47.651Z,6.20
2017-09-20T06:36:15.761Z,8.47
2017-09-20T06:38:43.879Z,10.63
2017-09-20T06:41:12.357Z,7.40
2017-09-20T06:43:40.553Z,9.23
2017-09-20T06:46:08.765Z,8.07
2017-09-20T06:48:37.702Z,7.20
2017-09-20T06:51:05.880Z,8.30
2017-09-20T06:53:34.403Z,6.70
2017-09-20T06:56:02.824Z,10.70
2017-09-20T06:58:30.965Z,8.40
2017-09-20T07:01:01.766Z,7.70
2017-09-20T07:03:30.954Z,8.43
2017-09-20T07:05:59.414Z,8.67
2017-09-20T07:08:27.962Z,8.17
2017-09-20T07:10:56.537Z,7.60
2017-09-20T07:13:24.682Z,10.87
2017-09-20T07:15:52.894Z,7.43
2017-09-20T07:18:21.043Z,5.80
2017-09-20T07:20:49.169Z,8.60
2017-09-20T07:23:18.576Z,8.93
2017-09-20T07:25:46.919Z,8.87
2017-09-20T07:28:17.170Z,6.93
2017-09-20T07:30:47.148Z,9.10
2017-09-20T07:35:49.716Z,7.37
2017-09-20T07:38:17.820Z,7.87
2017-09-20T07:40:47.134Z,10.90
2017-09-20T07:43:16.929Z,9.00
2017-09-20T07:45:45.331Z,9.93
2017-09-20T07:48:14.969Z,11.90
2017-09-20T07:50:46.687Z,9.73
2017-09-20T07:53:17.596Z,9.97
2017-09-20T07:55:47.037Z,11.57
2017-09-20T07:58:16.977Z,10.47
2017-09-20T08:00:47.988Z,11.10
2017-09-20T08:03:16.655Z,10.77
2017-09-20T08:05:47.965Z,11.73
2017-09-20T08:08:16.363Z,9.63
2017-09-20T08:10:46.195Z,10.33
2017-09-20T08:13:14.324Z,11.23
2017-09-20T08:18:22.655Z,12.17
2017-09-20T08:20:50.831Z,10.47
2017-09-20T08:23:18.948Z,11.27
2017-09-20T08:25:47.112Z,10.60
2017-09-20T08:28:15.226Z,13.10
2017-09-20T08:30:43.355Z,9.23
2017-09-20T08:33:12.434Z,10.07
2017-09-20T08:35:40.585Z,9.40
2017-09-20T08:38:09.552Z,13.60
2017-09-20T08:40:39.296Z,13.97
2017-09-20T08:43:07.461Z,10.43
2017-09-20T08:45:35.557Z,9.37
2017-09-20T08:48:03.702Z,10.30
2017-09-20T08:50:31.816Z,10.67
2017-09-20T08:52:59.985Z,12.07
2017-09-20T08:55:28.871Z,9.40
2017-09-20T08:57:57.024Z,12.43
2017-09-20T09:00:25.146Z,9.70
2017-09-20T09:02:54.051Z,8.67
2017-09-20T09:05:22.243Z,7.87
2017-09-20T09:07:50.349Z,7.83
2017-09-20T09:10:18.493Z,7.43
2017-09-20T09:12:46.615Z,8.77
2017-09-20T09:15:14.740Z,6.47
2017-09-20T09:17:42.892Z,20.63
2017-09-20T09:20:11.083Z,9.67
2017-09-20T09:22:39.981Z,7.70
2017-09-20T09:25:08.067Z,8.27
2017-09-20T09:27:36.170Z,7.90
2017-09-20T09:30:04.359Z,7.87
2017-09-20T09:32:32.527Z,6.27
2017-09-20T09:35:01.425Z,6.10
2017-09-20T09:37:29.555Z,7.43
2017-09-20T09:39:57.649Z,7.23
2017-09-20T09:42:27.448Z,6.17
2017-09-20T09:44:56.352Z,6.60
2017-09-20T09:47:25.399Z,6.90
2017-09-20T09:49:55.435Z,7.80
2017-09-20T09:52:24.738Z,7.53
2017-09-20T09:54:52.894Z,10.67
2017-09-20T09:57:21.775Z,4.17
2017-09-20T09:59:50.637Z,3.70
2017-09-20T10:02:18.868Z,7.80
2017-09-20T10:04:46.967Z,4.90
2017-09-20T10:07:15.123Z,3.73
2017-09-20T10:09:43.239Z,3.80
2017-09-20T10:12:12.560Z,9.63
2017-09-20T10:14:41.502Z,4.10
2017-09-20T10:17:09.686Z,6.13
2017-09-20T10:19:38.611Z,4.47
2017-09-20T10:22:06.725Z,6.27
2017-09-20T10:24:34.831Z,5.50
2017-09-20T10:27:02.972Z,6.00
2017-09-20T10:29:31.133Z,5.27
2017-09-20T10:31:59.308Z,6.13
2017-09-20T10:34:27.426Z,5.13
2017-09-20T10:36:56.327Z,5.43
2017-09-20T10:39:25.709Z,4.87
2017-09-20T10:41:53.868Z,4.67
2017-09-20T10:44:22.023Z,4.93
2017-09-20T10:46:50.163Z,3.87
2017-09-20T10:49:18.287Z,6.67
2017-09-20T10:51:46.463Z,5.40
2017-09-20T10:54:14.802Z,4.70
2017-09-20T10:56:42.964Z,5.13
2017-09-20T10:59:11.894Z,5.07
2017-09-20T11:01:40.110Z,3.97
2017-09-20T11:04:08.230Z,4.70
2017-09-20T11:06:37.348Z,4.07
2017-09-20T11:09:07.559Z,4.53
2017-09-20T11:11:35.717Z,6.00
2017-09-20T11:14:03.837Z,3.30
2017-09-20T11:16:31.983Z,3.33
2017-09-20T11:19:00.244Z,4.50
2017-09-20T11:21:29.103Z,3.20
2017-09-20T11:23:57.223Z,4.00
2017-09-20T11:26:25.553Z,6.37
2017-09-20T11:28:53.723Z,5.57
2017-09-20T11:31:21.883Z,3.80
2017-09-20T11:33:50.574Z,2.40
2017-09-20T11:36:18.695Z,5.07
2017-09-20T11:38:47.595Z,3.20
2017-09-20T11:41:16.273Z,3.40
2017-09-20T11:43:44.464Z,3.63
2017-09-20T11:46:13.322Z,3.23
2017-09-20T11:48:42.212Z,5.70
2017-09-20T11:51:10.321Z,3.20
2017-09-20T11:53:38.528Z,3.90
2017-09-20T11:56:06.653Z,2.47
2017-09-20T11:58:34.776Z,3.10
2017-09-20T12:01:02.945Z,4.63
2017-09-20T12:03:31.022Z,4.27
2017-09-20T12:05:59.149Z,6.30
2017-09-20T12:08:27.277Z,6.37
2017-09-20T12:10:56.225Z,7.47
2017-09-20T12:13:24.562Z,3.87
2017-09-20T12:15:52.699Z,3.17
2017-09-20T12:18:20.873Z,4.33
2017-09-20T12:20:49.774Z,3.27
2017-09-20T12:23:17.902Z,2.17
2017-09-20T12:25:46.136Z,4.03
2017-09-20T12:28:14.263Z,3.50
2017-09-20T12:30:42.447Z,2.60
2017-09-20T12:33:10.565Z,6.10
2017-09-20T12:35:38.702Z,7.00
2017-09-20T12:38:06.834Z,3.17
2017-09-20T12:40:35.725Z,2.87
2017-09-20T12:43:04.597Z,2.90
2017-09-20T12:45:34.236Z,1.93
2017-09-20T12:48:02.311Z,3.40
2017-09-20T12:50:31.189Z,5.00
2017-09-20T12:52:59.265Z,6.40
2017-09-20T12:55:28.140Z,2.10
2017-09-20T12:57:56.267Z,2.70
2017-09-20T13:00:24.408Z,1.90
2017-09-20T13:02:53.317Z,5.27
2017-09-20T13:05:21.423Z,3.33
2017-09-20T13:07:49.531Z,2.00
2017-09-20T13:10:17.650Z,3.70
2017-09-20T13:12:45.763Z,1.60
2017-09-20T13:15:13.895Z,4.03
2017-09-20T13:17:42.015Z,7.80
2017-09-20T13:20:10.123Z,2.53
2017-09-20T13:22:38.988Z,5.23
2017-09-20T13:25:07.164Z,10.33
2017-09-20T13:27:35.305Z,18.30
2017-09-20T13:30:03.424Z,5.90
2017-09-20T13:32:31.561Z,8.33
2017-09-20T13:35:00.467Z,3.10
2017-09-20T13:37:28.610Z,11.10
2017-09-20T13:39:57.355Z,4.07
2017-09-20T13:42:25.491Z,4.90
2017-09-20T13:44:53.709Z,5.67
2017-09-20T13:47:21.850Z,3.50
2017-09-20T13:49:50.749Z,6.63
2017-09-20T13:52:19.620Z,6.90
2017-09-20T13:54:48.521Z,4.37
2017-09-20T13:57:16.656Z,7.93
2017-09-20T13:59:44.836Z,2.53
2017-09-20T14:02:13.787Z,3.03
2017-09-20T14:04:42.037Z,2.00
2017-09-20T14:07:10.348Z,6.80
2017-09-20T14:09:38.531Z,2.90
2017-09-20T14:12:06.770Z,3.77
2017-09-20T14:14:34.924Z,2.50
2017-09-20T14:17:03.041Z,3.33
2017-09-20T14:19:32.725Z,3.80
2017-09-20T14:22:01.895Z,1.80
2017-09-20T14:24:30.127Z,5.90
2017-09-20T14:26:59.097Z,4.10
2017-09-20T14:29:27.261Z,8.67
2017-09-20T14:31:55.495Z,8.00
2017-09-20T14:34:23.715Z,8.07
2017-09-20T14:36:51.855Z,4.10
2017-09-20T14:39:21.483Z,5.00
2017-09-20T14:41:49.612Z,13.00
2017-09-20T14:44:17.798Z,2.70
2017-09-20T14:46:46.161Z,6.33
2017-09-20T14:49:14.273Z,4.17
2017-09-20T14:51:42.479Z,5.50
2017-09-20T14:54:10.719Z,4.23
2017-09-20T14:56:38.880Z,5.07
2017-09-20T14:59:07.030Z,6.80
2017-09-20T15:01:35.952Z,7.03
2017-09-20T15:04:04.627Z,5.90
2017-09-20T15:06:34.111Z,2.90
2017-09-20T15:09:03.920Z,3.30
2017-09-20T15:11:33.305Z,4.20
2017-09-20T15:14:02.192Z,2.90
2017-09-20T15:16:56.152Z,9.47
2017-09-20T15:19:29.859Z,7.40
2017-09-20T15:21:59.224Z,9.53
2017-09-20T15:24:27.966Z,5.57
2017-09-20T15:26:56.079Z,8.63
2017-09-20T15:29:24.242Z,18.80
2017-09-20T15:31:52.642Z,45.63
2017-09-20T15:34:21.577Z,14.23
2017-09-20T15:36:49.706Z,8.90
2017-09-20T15:39:18.581Z,10.70
2017-09-20T15:41:46.712Z,2.43
2017-09-20T15:44:14.824Z,2.07
2017-09-20T15:46:43.053Z,11.37
2017-09-20T15:49:11.229Z,4.93
2017-09-20T15:51:39.350Z,3.90
2017-09-20T15:54:09.856Z,2.40
2017-09-20T15:56:38.008Z,2.83
2017-09-20T15:59:06.109Z,3.27
2017-09-20T16:01:34.347Z,3.40
2017-09-20T16:04:03.235Z,6.60
2017-09-20T16:06:32.194Z,2.87
2017-09-20T16:09:00.316Z,2.43
2017-09-20T16:11:28.473Z,3.63
2017-09-20T16:13:56.633Z,2.77
2017-09-20T16:16:25.513Z,3.20
2017-09-20T16:18:54.386Z,5.13
2017-09-20T16:21:23.263Z,2.47
2017-09-20T16:23:51.484Z,4.80
2017-09-20T16:26:19.601Z,4.00
2017-09-20T16:28:47.734Z,2.93
2017-09-20T16:31:15.863Z,3.00
2017-09-20T16:33:43.990Z,1.90
2017-09-20T16:36:12.134Z,2.80
2017-09-20T16:38:40.250Z,1.60
2017-09-20T16:41:08.484Z,3.70
2017-09-20T16:43:36.575Z,5.10
2017-09-20T16:46:05.474Z,1.80
2017-09-20T16:48:33.671Z,2.03
2017-09-20T16:51:01.805Z,2.80
2017-09-20T16:53:29.961Z,3.00
2017-09-20T16:55:58.093Z,2.60
2017-09-20T16:58:26.212Z,2.13
2017-09-20T17:00:54.346Z,1.30
2017-09-20T17:03:22.468Z,1.80
2017-09-20T17:05:50.563Z,2.23
2017-09-20T17:08:18.801Z,2.80
2017-09-20T17:10:46.893Z,3.73
2017-09-20T17:13:16.501Z,2.77
2017-09-20T17:15:44.723Z,1.80
2017-09-20T17:18:13.607Z,2.17
2017-09-20T17:20:41.727Z,2.93
2017-09-20T17:23:09.865Z,2.87
2017-09-20T17:25:38.804Z,4.23
2017-09-20T17:28:07.015Z,4.40
2017-09-20T17:30:35.919Z,8.13
2017-09-20T17:33:04.908Z,2.40
2017-09-20T17:35:34.068Z,5.13
2017-09-20T17:38:02.336Z,5.37
2017-09-20T17:40:30.473Z,3.77
2017-09-20T17:42:59.365Z,4.37
2017-09-20T17:45:27.461Z,4.07
2017-09-20T17:47:56.357Z,3.13
2017-09-20T17:50:24.445Z,4.10
2017-09-20T17:52:54.085Z,4.70
2017-09-20T17:55:22.206Z,2.87
2017-09-20T17:57:51.306Z,4.73
2017-09-20T18:00:19.408Z,5.60
2017-09-20T18:02:47.531Z,3.80
2017-09-20T18:05:16.323Z,3.77
2017-09-20T18:07:45.337Z,4.63
2017-09-20T18:10:14.232Z,4.37
2017-09-20T18:12:42.350Z,6.00
2017-09-20T18:15:10.476Z,12.97
2017-09-20T18:17:40.135Z,7.93
2017-09-20T18:20:08.281Z,6.30
2017-09-20T18:22:37.193Z,6.17
2017-09-20T18:25:05.330Z,6.47
2017-09-20T18:27:33.437Z,4.27
2017-09-20T18:30:01.586Z,4.53
2017-09-20T18:32:29.730Z,4.00
2017-09-20T18:34:57.810Z,6.87
2017-09-20T18:37:25.904Z,7.10
2017-09-20T18:39:54.066Z,4.87
2017-09-20T18:42:22.224Z,6.53
2017-09-20T18:44:50.326Z,4.40
2017-09-20T18:47:18.471Z,5.50
2017-09-20T18:49:46.585Z,4.83
2017-09-20T18:52:15.480Z,4.43
2017-09-20T18:54:44.525Z,4.60
2017-09-20T18:57:13.480Z,5.67
2017-09-20T18:59:41.627Z,7.10
2017-09-20T19:02:09.737Z,7.43
2017-09-20T19:04:37.899Z,7.20
2017-09-20T19:07:06.802Z,5.87
2017-09-20T19:09:34.968Z,5.27
2017-09-20T19:12:03.099Z,5.17
2017-09-20T19:14:31.545Z,6.10
2017-09-20T19:16:59.893Z,5.47
2017-09-20T19:19:28.090Z,4.83
2017-09-20T19:21:56.224Z,4.17
2017-09-20T19:24:24.337Z,5.87
2017-09-20T19:26:52.482Z,4.33
2017-09-20T19:29:20.621Z,4.23
2017-09-20T19:31:48.758Z,5.00
2017-09-20T19:34:18.590Z,9.43
2017-09-20T19:36:46.902Z,6.00
2017-09-20T19:39:15.096Z,9.40
2017-09-20T19:41:44.017Z,6.13
2017-09-20T19:44:12.157Z,4.47
2017-09-20T19:46:40.252Z,6.50
2017-09-20T19:49:08.394Z,3.87
2017-09-20T19:51:36.525Z,4.10
2017-09-20T19:54:05.191Z,4.27
2017-09-20T19:56:33.333Z,4.10
2017-09-20T19:59:01.477Z,5.73
2017-09-20T20:01:29.630Z,4.83
2017-09-20T20:03:57.821Z,7.20
2017-09-20T20:06:25.986Z,6.33
2017-09-20T20:08:54.121Z,4.93
2017-09-20T20:11:22.303Z,5.97
2017-09-20T20:13:50.410Z,4.50
2017-09-20T20:16:19.133Z,5.93
2017-09-20T20:18:48.103Z,5.20
2017-09-20T20:21:17.758Z,5.13
2017-09-20T20:23:45.853Z,4.33
2017-09-20T20:26:14.221Z,4.33
2017-09-20T20:28:42.385Z,5.23
2017-09-20T20:31:10.538Z,9.90
2017-09-20T20:33:39.487Z,5.40
2017-09-20T20:36:07.589Z,6.70
2017-09-20T20:38:36.511Z,7.20
2017-09-20T20:41:04.689Z,7.17
2017-09-20T20:43:32.862Z,6.57
2017-09-20T20:46:01.394Z,9.87
2017-09-20T20:48:29.551Z,6.10
2017-09-20T20:50:57.718Z,6.07
2017-09-20T20:53:25.839Z,5.73
2017-09-20T20:55:54.003Z,6.80
2017-09-20T20:58:22.213Z,6.23
2017-09-20T21:00:50.400Z,7.20
2017-09-20T21:03:18.535Z,8.30
2017-09-20T21:05:47.492Z,6.77
2017-09-20T21:08:15.632Z,7.27
2017-09-20T21:10:43.775Z,8.83
2017-09-20T21:13:14.220Z,8.23
2017-09-20T21:15:42.596Z,7.60
2017-09-20T21:18:10.687Z,7.33
2017-09-20T21:20:39.578Z,9.90
2017-09-20T21:23:07.773Z,8.30
2017-09-20T21:25:37.421Z,10.10
2017-09-20T21:28:05.604Z,7.80
2017-09-20T21:30:33.753Z,9.97
2017-09-20T21:33:02.211Z,10.33
2017-09-20T21:35:31.124Z,8.37
2017-09-20T21:37:59.271Z,10.23
2017-09-20T21:40:27.436Z,9.57
2017-09-20T21:42:55.558Z,10.40
2017-09-20T21:45:23.732Z,11.13
2017-09-20T21:47:51.858Z,10.60
2017-09-20T21:50:19.999Z,10.33
2017-09-20T21:52:48.104Z,11.40
2017-09-20T21:55:16.842Z,11.00
2017-09-20T21:57:44.988Z,11.90
2017-09-20T22:00:13.133Z,12.63
2017-09-20T22:02:41.260Z,12.80
2017-09-20T22:05:10.939Z,12.33
2017-09-20T22:07:39.867Z,13.80
2017-09-20T22:10:08.013Z,13.13
2017-09-20T22:12:36.171Z,13.53
2017-09-20T22:15:16.366Z,14.77
2017-09-20T22:17:56.475Z,16.27
2017-09-20T22:20:36.436Z,15.97
2017-09-20T22:23:16.669Z,16.00
2017-09-20T22:25:56.790Z,19.00
2017-09-20T22:28:24.956Z,19.30
2017-09-20T22:30:53.089Z,19.10
2017-09-20T22:33:22.089Z,17.77
2017-09-20T22:35:50.254Z,18.33
2017-09-20T22:38:18.415Z,19.27
2017-09-20T22:40:46.683Z,19.37
2017-09-20T22:43:14.832Z,19.03
2017-09-20T22:45:42.946Z,20.03
2017-09-20T22:48:11.103Z,19.23
2017-09-20T22:50:39.855Z,18.00
2017-09-20T22:53:08.010Z,21.20
2017-09-20T22:55:36.287Z,21.07
2017-09-20T22:58:04.432Z,19.90
2017-09-20T23:00:32.566Z,20.23
2017-09-20T23:03:00.675Z,19.67
2017-09-20T23:05:30.181Z,19.93
2017-09-20T23:07:59.099Z,20.73
2017-09-20T23:10:27.282Z,19.47
2017-09-20T23:12:55.413Z,20.90
2017-09-20T23:15:25.033Z,19.43
2017-09-20T23:17:53.137Z,21.20
2017-09-20T23:20:21.274Z,20.83
2017-09-20T23:22:49.465Z,19.27
2017-09-20T23:25:18.397Z,18.40
2017-09-20T23:27:46.556Z,21.23
2017-09-20T23:30:14.697Z,18.20
2017-09-20T23:32:42.853Z,19.80
2017-09-20T23:35:11.765Z,18.00
2017-09-20T23:37:40.000Z,18.80
2017-09-20T23:40:08.180Z,18.17
2017-09-20T23:42:37.064Z,16.93
2017-09-20T23:45:06.702Z,16.10
2017-09-20T23:47:36.326Z,16.50
2017-09-20T23:50:04.497Z,18.67
2017-09-20T23:52:33.278Z,18.13
2017-09-20T23:55:01.427Z,18.20
2017-09-20T23:57:30.347Z,17.13
2017-09-20T23:59:58.517Z,17.90
